createdAt,value
2023-04-22T00:01:43.396Z,76.95
2023-04-22T00:06:46.772Z,77.42
2023-04-22T00:11:49.976Z,78.03
2023-04-22T00:16:53.357Z,78.93
2023-04-22T00:21:56.907Z,79.36
2023-04-22T00:27:00.124Z,80.22
2023-04-22T00:32:03.848Z,80.67
2023-04-22T00:37:07.040Z,81.09
2023-04-22T00:42:10.730Z,81.90
2023-04-22T00:47:14.320Z,82.70
2023-04-22T00:52:17.585Z,83.44
2023-04-22T00:57:21.104Z,83.75
2023-04-22T01:02:25.574Z,83.54
2023-04-22T01:07:29.158Z,83.29
2023-04-22T01:12:32.065Z,83.03
2023-04-22T01:17:36.072Z,83.15
2023-04-22T01:22:45.741Z,83.30
2023-04-22T01:27:49.680Z,83.50
2023-04-22T01:32:53.389Z,83.62
2023-04-22T01:37:58.243Z,84.08
2023-04-22T01:43:02.163Z,84.83
2023-04-22T01:48:07.226Z,85.31
2023-04-22T01:53:11.923Z,86.10
2023-04-22T01:58:15.067Z,86.59
2023-04-22T02:03:18.209Z,87.19
2023-04-22T02:08:21.273Z,88.10
2023-04-22T02:13:24.484Z,88.73
2023-04-22T02:18:27.904Z,89.13
2023-04-22T02:23:31.472Z,89.42
2023-04-22T02:28:34.624Z,89.54
2023-04-22T02:33:37.855Z,89.55
2023-04-22T02:38:40.937Z,89.63
2023-04-22T02:43:46.526Z,89.98
2023-04-22T02:48:49.916Z,90.26
2023-04-22T02:53:53.320Z,90.30
2023-04-22T02:58:56.425Z,90.59
2023-04-22T03:04:00.187Z,90.72
2023-04-22T03:09:04.286Z,90.71
2023-04-22T03:14:07.380Z,90.64
2023-04-22T03:19:10.500Z,90.97
2023-04-22T03:24:13.902Z,90.95
2023-04-22T03:29:16.904Z,91.04
2023-04-22T03:34:20.021Z,91.11
2023-04-22T03:39:23.123Z,91.13
2023-04-22T03:44:26.194Z,91.22
2023-04-22T03:49:29.293Z,91.13
2023-04-22T03:54:32.432Z,91.23
2023-04-22T03:59:35.954Z,91.71
2023-04-22T04:04:39.571Z,92.20
2023-04-22T04:09:43.007Z,92.37
2023-04-22T04:14:46.093Z,94.00
2023-04-22T04:19:49.602Z,93.68
2023-04-22T04:24:52.909Z,89.49
2023-04-22T04:29:56.203Z,84.80
2023-04-22T04:35:00.251Z,79.27
2023-04-22T04:40:04.168Z,72.56
2023-04-22T04:45:09.606Z,67.66
2023-04-22T04:50:12.733Z,64.29
2023-04-22T04:55:16.730Z,60.54
2023-04-22T05:00:20.069Z,58.15
2023-04-22T05:05:23.180Z,55.08
2023-04-22T05:10:26.604Z,52.30
2023-04-22T05:15:30.310Z,49.70
2023-04-22T05:20:36.188Z,47.12
2023-04-22T05:25:40.434Z,44.02
2023-04-22T05:30:43.535Z,42.56
2023-04-22T05:35:46.937Z,41.11
2023-04-22T05:40:50.667Z,39.52
2023-04-22T05:45:53.793Z,38.69
2023-04-22T05:50:56.987Z,37.15
2023-04-22T05:56:00.320Z,36.00
2023-04-22T06:01:03.702Z,35.26
2023-04-22T06:06:07.721Z,33.99
2023-04-22T06:11:11.541Z,32.75
2023-04-22T06:16:14.651Z,31.32
2023-04-22T06:21:18.268Z,30.18
2023-04-22T06:26:21.881Z,29.38
2023-04-22T06:31:25.122Z,28.05
2023-04-22T06:36:30.473Z,27.92
2023-04-22T06:41:34.164Z,26.84
2023-04-22T06:46:39.765Z,26.14
2023-04-22T06:51:43.145Z,26.00
2023-04-22T06:56:46.580Z,25.51
2023-04-22T07:01:50.008Z,24.82
2023-04-22T07:06:53.951Z,23.49
2023-04-22T07:11:58.123Z,23.08
2023-04-22T07:17:01.337Z,23.53
2023-04-22T07:22:05.237Z,23.45
2023-04-22T07:27:08.915Z,23.04
2023-04-22T07:32:12.732Z,22.58
2023-04-22T07:37:16.217Z,21.89
2023-04-22T07:42:19.525Z,21.52
2023-04-22T07:47:23.154Z,21.35
2023-04-22T07:52:26.349Z,20.49
2023-04-22T07:57:29.643Z,20.10
2023-04-22T08:02:33.190Z,20.79
2023-04-22T08:07:36.591Z,19.87
2023-04-22T08:12:39.912Z,19.84
2023-04-22T08:17:43.644Z,19.64
2023-04-22T08:22:47.457Z,19.52
2023-04-22T08:27:52.599Z,19.24
2023-04-22T08:32:56.088Z,18.75
2023-04-22T08:37:59.320Z,19.26
2023-04-22T08:43:03.352Z,20.25
2023-04-22T08:48:09.806Z,19.02
2023-04-22T08:53:14.084Z,18.99
2023-04-22T08:58:18.203Z,19.76
2023-04-22T09:03:22.727Z,18.63
2023-04-22T09:08:26.862Z,18.44
2023-04-22T09:13:30.591Z,17.78
2023-04-22T09:18:41.269Z,17.38
2023-04-22T09:23:55.161Z,16.94
2023-04-22T09:29:00.935Z,16.90
2023-04-22T09:34:05.019Z,16.73
2023-04-22T09:39:08.950Z,17.33
2023-04-22T09:44:18.205Z,17.22
2023-04-22T09:49:22.022Z,16.66
2023-04-22T09:54:25.226Z,16.99
2023-04-22T09:59:30.067Z,16.57
2023-04-22T10:04:33.397Z,16.78
2023-04-22T10:09:37.314Z,17.19
2023-04-22T10:14:40.983Z,18.12
2023-04-22T10:19:47.818Z,20.51
2023-04-22T10:24:55.841Z,22.65
2023-04-22T10:29:58.946Z,24.25
2023-04-22T10:35:11.421Z,25.63
2023-04-22T10:40:19.100Z,27.18
2023-04-22T10:45:26.035Z,28.61
2023-04-22T10:50:33.022Z,29.60
2023-04-22T10:55:54.419Z,30.88
2023-04-22T11:01:03.375Z,31.43
2023-04-22T11:06:17.290Z,31.98
2023-04-22T11:11:20.840Z,32.19
2023-04-22T11:16:24.679Z,32.19
2023-04-22T11:21:28.167Z,33.18
2023-04-22T11:26:35.512Z,33.31
2023-04-22T11:31:39.112Z,33.75
2023-04-22T11:36:46.089Z,34.35
2023-04-22T11:41:49.292Z,34.25
2023-04-22T11:46:52.504Z,34.68
2023-04-22T11:51:57.178Z,33.98
2023-04-22T11:57:15.744Z,33.67
2023-04-22T12:02:19.090Z,33.87
2023-04-22T12:07:22.366Z,34.30
2023-04-22T12:12:28.964Z,34.42
2023-04-22T12:17:32.319Z,33.66
2023-04-22T12:22:36.765Z,33.95
2023-04-22T12:27:40.690Z,34.16
2023-04-22T12:32:44.104Z,33.96
2023-04-22T12:37:47.216Z,33.72
2023-04-22T12:42:50.451Z,33.39
2023-04-22T12:47:54.127Z,33.75
2023-04-22T12:52:57.453Z,33.61
2023-04-22T12:58:00.977Z,33.63
2023-04-22T13:03:04.376Z,34.74
2023-04-22T13:08:08.360Z,35.60
2023-04-22T13:18:18.056Z,34.63
2023-04-22T13:23:22.167Z,34.45
2023-04-22T13:28:26.149Z,34.61
2023-04-22T13:33:29.464Z,34.88
2023-04-22T13:38:44.793Z,33.92
2023-04-22T13:43:52.163Z,34.43
2023-04-22T13:48:57.024Z,34.94
2023-04-22T13:54:01.076Z,35.45
2023-04-22T13:59:04.449Z,34.81
2023-04-22T14:04:07.890Z,35.58
2023-04-22T14:09:11.897Z,35.22
2023-04-22T14:14:15.308Z,34.66
2023-04-22T14:19:19.078Z,35.13
2023-04-22T14:24:24.502Z,35.47
2023-04-22T14:29:30.462Z,35.32
2023-04-22T14:34:34.483Z,35.63
2023-04-22T14:39:37.807Z,36.25
2023-04-22T14:44:41.207Z,36.42
2023-04-22T14:49:44.415Z,36.29
2023-04-22T14:54:51.199Z,37.26
2023-04-22T14:59:55.028Z,37.29
2023-04-22T15:04:58.234Z,37.20
2023-04-22T15:10:02.413Z,37.01
2023-04-22T15:15:07.503Z,36.75
2023-04-22T15:20:12.412Z,36.97
2023-04-22T15:25:17.912Z,37.22
2023-04-22T15:30:21.455Z,37.50
2023-04-22T15:35:24.869Z,37.44
2023-04-22T15:40:28.067Z,37.34
2023-04-22T15:45:31.380Z,37.90
2023-04-22T15:50:35.092Z,38.70
2023-04-22T15:55:38.405Z,38.58
2023-04-22T16:00:43.712Z,38.66
2023-04-22T16:05:47.389Z,38.24
2023-04-22T16:10:51.575Z,38.36
2023-04-22T16:15:55.128Z,39.00
2023-04-22T16:21:00.517Z,39.17
2023-04-22T16:26:05.964Z,39.22
2023-04-22T16:31:10.930Z,39.64
2023-04-22T16:36:14.207Z,40.06
2023-04-22T16:41:17.617Z,39.96
2023-04-22T16:46:20.850Z,40.26
2023-04-22T16:51:24.037Z,40.60
2023-04-22T16:56:27.552Z,41.05
2023-04-22T17:01:31.500Z,41.04
2023-04-22T17:06:34.687Z,41.38
2023-04-22T17:11:38.521Z,42.21
2023-04-22T17:16:42.030Z,43.13
2023-04-22T17:21:45.712Z,44.93
2023-04-22T17:26:48.953Z,46.94
2023-04-22T17:31:52.740Z,47.89
2023-04-22T17:36:56.084Z,47.43
2023-04-22T17:41:59.294Z,47.48
2023-04-22T17:47:03.977Z,48.57
2023-04-22T17:52:08.379Z,49.27
2023-04-22T17:57:12.715Z,50.32
2023-04-22T18:02:16.449Z,51.62
2023-04-22T18:07:20.712Z,52.50
2023-04-22T18:12:28.575Z,53.96
2023-04-22T18:17:36.307Z,54.74
2023-04-22T18:22:40.942Z,55.87
2023-04-22T18:27:44.759Z,57.76
2023-04-22T18:32:48.812Z,59.33
2023-04-22T18:37:52.302Z,60.36
2023-04-22T18:42:55.923Z,60.93
2023-04-22T18:47:59.282Z,61.32
2023-04-22T18:53:02.755Z,61.65
2023-04-22T18:58:06.567Z,62.20
2023-04-22T19:03:11.684Z,63.41
2023-04-22T19:08:15.252Z,64.60
2023-04-22T19:13:29.314Z,65.23
2023-04-22T19:18:33.852Z,65.91
2023-04-22T19:23:39.084Z,66.87
2023-04-22T19:28:47.315Z,68.18
2023-04-22T19:33:51.759Z,69.14
2023-04-22T19:38:55.971Z,69.97
2023-04-22T19:44:01.606Z,70.45
2023-04-22T19:49:07.115Z,70.92
2023-04-22T19:54:13.348Z,72.07
2023-04-22T19:59:20.428Z,73.05
2023-04-22T20:04:26.179Z,73.01
2023-04-22T20:09:33.364Z,73.32
2023-04-22T20:14:37.300Z,73.93
2023-04-22T20:19:41.661Z,74.64
2023-04-22T20:24:46.483Z,75.25
2023-04-22T20:29:50.445Z,75.79
2023-04-22T20:34:56.469Z,76.17
2023-04-22T20:40:06.195Z,77.11
2023-04-22T20:45:15.830Z,78.19
2023-04-22T20:50:21.082Z,78.49
2023-04-22T20:55:24.605Z,79.22
2023-04-22T21:00:28.995Z,79.61
2023-04-22T21:05:33.953Z,79.93
2023-04-22T21:10:38.072Z,80.52
2023-04-22T21:15:47.260Z,80.74
2023-04-22T21:20:51.960Z,81.05
2023-04-22T21:25:56.929Z,81.98
2023-04-22T21:31:01.290Z,82.99
2023-04-22T21:36:05.476Z,83.12
2023-04-22T21:41:09.302Z,83.05
2023-04-22T21:46:12.871Z,83.26
2023-04-22T21:51:17.890Z,83.63
2023-04-22T21:56:22.227Z,83.82
2023-04-22T22:01:26.800Z,84.30
2023-04-22T22:06:30.765Z,85.06
2023-04-22T22:11:34.435Z,85.32
2023-04-22T22:16:38.874Z,85.63
2023-04-22T22:21:42.132Z,86.30
2023-04-22T22:26:45.141Z,86.84
2023-04-22T22:31:48.402Z,87.38
2023-04-22T22:36:51.969Z,87.65
2023-04-22T22:41:55.785Z,88.14
2023-04-22T22:46:59.098Z,88.40
2023-04-22T22:52:02.248Z,88.93
2023-04-22T22:57:05.920Z,89.46
2023-04-22T23:02:09.316Z,90.30
2023-04-22T23:07:12.651Z,90.87
2023-04-22T23:12:15.749Z,90.71
2023-04-22T23:17:19.116Z,90.60
2023-04-22T23:22:23.400Z,90.58
2023-04-22T23:27:26.913Z,90.32
2023-04-22T23:32:32.631Z,90.97
2023-04-22T23:37:38.105Z,91.79
2023-04-22T23:42:41.464Z,92.27
2023-04-22T23:47:44.926Z,92.13
2023-04-22T23:52:48.176Z,92.23
2023-04-22T23:57:51.691Z,92.58
